Pendleton, OR (97801)

5:17 AM PDT on September 05, 2015 (GMT -0700)
Sun Ridge Estates | | Change Station
CLOSE
Current Station
Personal Weather Station
Location: Pendleton, OR
Elevation: 1210 ft
Nearby Weather Stations

Elev 1210 ft 45.65 °N, 118.79 °W | Updated 12 minutes ago

Rain
Rain
49.3 °F
Feels Like 49 °F
N
2.0
Wind Variable Wind from South
Gusts 4.0 mph

Today
High -- | Low -- °F
--% Chance of Precip.
Yesterday
High -- | Low -- °F
Precip. -- in
6:21 AM 7:25 PM
Waning Gibbous, 49% visible
Pressure 29.91 in
Visibility 10.0 miles
Clouds Overcast 4800 ft
Windchill 49 °F
Dew Point 47 °F
Humidity 90%
Rainfall 0.53 in
Snow Depth Not available.
UV 0 out of 12
Pollen .70 out of 12
Air Quality Not available.
Flu Activity Not available.
METAR KPDT 051153Z AUTO 17005KT 10SM RA OVC048 09/08 A2992 RMK AO2 SLP127 P0008 60041 70044 T00940078 10111 20089 53010
Pressure 29.91 in
Visibility 10.0 miles
Clouds Overcast 4800 ft
Windchill 49 °F
Dew Point 47 °F
Humidity 90%
Rainfall 0.53 in
Snow Depth Not available.
UV 0 out of 12
Pollen .70 out of 12
Air Quality Not available.
Flu Activity Not available.
METAR KPDT 051153Z AUTO 17005KT 10SM RA OVC048 09/08 A2992 RMK AO2 SLP127 P0008 60041 70044 T00940078 10111 20089 53010

10-Day Weather Forecast

×

Almanac

Astronomy

Sep. 05, 2015 Rise Set
Actual Time
Civil Twilight
Nautical Twilight
Astronomical Twilight
Moon
Length of Visible Light
Length of Day
Tomorrow will be .
, % of the Moon is Illuminated

Today's Extremes

State Highs State Lows

Community

WunderPhotos

Upload Photos

1,852,455 photos uploaded!

WunderBlogs® & News

Nearby

Air Quality

  Air Quality AQ Index Pollutant
Not available.

Snow Depth

Station Depth Elevation

Earthquake Activity

City Distance Mag. Time & Date
Minimum magnitude displayed is 2.5.

Coastal Water Temperatures

Place Temperature

Stations

Nearby Weather Stations

Station Location Temp. Windchill Dew Point Humidity Wind Precip. Elev Updated Type